Time;durP1;ratioP1;P1;durP2;ratioP2;P2;SDS_P1;SDS_P2;PMS_P1;PMS_P2;Temp;Humidity;BMP_temperature;BMP_pressure;BME280_temperature;BME280_humidity;BME280_pressure;Samples;Min_cycle;Max_cycle;Signal;HPM_P1;HPM_P2
2022/10/02 00:02:19;;;;;;;10.32;6.30;;;;;;;12.62;100.00;98242.88;1595041;90;21578;-63
2022/10/02 00:05:14;;;;;;;12.88;6.75;;;;;;;12.63;100.00;98231.51;1606771;87;21897;-63
2022/10/02 00:07:48;;;;;;;11.38;7.60;;;;;;;12.64;100.00;98236.62;1631659;87;21001;-64
2022/10/02 00:10:34;;;;;;;8.08;5.83;;;;;;;12.68;100.00;98228.12;1629611;86;20993;-63
2022/10/02 00:13:06;;;;;;;9.05;5.85;;;;;;;12.75;100.00;98222.84;1622220;86;21025;-63
2022/10/02 00:15:34;;;;;;;7.40;5.87;;;;;;;12.85;100.00;98225.16;1633686;86;20973;-63
2022/10/02 00:18:05;;;;;;;8.63;5.30;;;;;;;12.94;100.00;98216.70;1622825;87;21517;-64
2022/10/02 00:21:00;;;;;;;10.35;6.80;;;;;;;13.03;100.00;98221.25;1621955;88;20969;-63
2022/10/02 00:23:41;;;;;;;7.47;6.05;;;;;;;13.14;100.00;98213.97;1628242;86;21100;-64
2022/10/02 00:26:21;;;;;;;10.58;4.83;;;;;;;13.23;100.00;98200.73;1621883;87;21073;-64
2022/10/02 00:29:18;;;;;;;6.03;4.60;;;;;;;13.30;100.00;98200.20;1622025;88;21501;-64
2022/10/02 00:32:15;;;;;;;6.22;5.03;;;;;;;13.38;100.00;98185.29;1616061;86;21176;-63
2022/10/02 00:35:14;;;;;;;8.80;4.65;;;;;;;13.48;100.00;98176.28;1664732;84;20981;-64
2022/10/02 00:37:58;;;;;;;7.22;4.28;;;;;;;13.50;100.00;98165.25;1658305;85;21501;-63
2022/10/02 00:40:49;;;;;;;15.18;5.55;;;;;;;13.47;100.00;98162.39;1633554;86;21026;-63
2022/10/02 00:43:30;;;;;;;6.80;4.85;;;;;;;13.43;100.00;98163.09;1633343;86;20981;-64
2022/10/02 00:46:05;;;;;;;8.88;4.78;;;;;;;13.43;100.00;98172.70;1629471;87;21254;-64
2022/10/02 00:48:50;;;;;;;6.05;4.55;;;;;;;13.43;100.00;98157.86;1633240;87;20997;-63
2022/10/02 00:51:36;;;;;;;8.85;4.92;;;;;;;13.48;100.00;98154.09;1633838;87;21465;-63
2022/10/02 00:54:47;;;;;;;7.65;4.50;;;;;;;13.50;100.00;98154.34;1622380;87;20982;-63
2022/10/02 00:57:37;;;;;;;7.15;4.28;;;;;;;13.54;100.00;98149.25;1633546;87;21002;-63
2022/10/02 01:00:15;;;;;;;7.20;4.42;;;;;;;13.63;100.00;98150.33;1621681;88;21221;-64
2022/10/02 01:03:10;;;;;;;8.13;4.40;;;;;;;13.69;100.00;98132.42;1633267;87;21009;-64
2022/10/02 01:05:38;;;;;;;8.38;4.95;;;;;;;13.74;100.00;98126.38;1627033;87;21025;-63
2022/10/02 01:08:07;;;;;;;4.87;4.30;;;;;;;13.82;100.00;98155.00;1633820;86;21025;-64
2022/10/02 01:10:34;;;;;;;7.12;3.87;;;;;;;13.86;100.00;98122.47;1644759;86;21018;-64
2022/10/02 01:13:01;;;;;;;8.05;4.83;;;;;;;13.91;100.00;98115.95;1633215;86;21181;-63
2022/10/02 01:15:37;;;;;;;11.70;4.97;;;;;;;13.91;100.00;98115.95;1626298;87;21038;-63
2022/10/02 01:18:06;;;;;;;5.37;4.62;;;;;;;13.97;100.00;98108.95;1637456;86;21442;-64
2022/10/02 01:20:51;;;;;;;7.03;4.62;;;;;;;14.03;100.00;98111.08;1633148;88;21017;-64
2022/10/02 01:23:39;;;;;;;5.80;4.00;;;;;;;14.08;100.00;98106.33;1633308;88;21013;-64
2022/10/02 01:26:06;;;;;;;8.33;4.60;;;;;;;14.10;100.00;98083.52;1624546;87;21269;-64
2022/10/02 01:28:32;;;;;;;7.20;5.28;;;;;;;14.03;100.00;98084.09;1646461;86;21521;-64
2022/10/02 01:31:03;;;;;;;8.60;5.08;;;;;;;14.00;100.00;98083.86;1633236;88;20997;-65
2022/10/02 01:33:30;;;;;;;5.92;4.37;;;;;;;14.01;100.00;98087.30;1633190;86;21001;-64
2022/10/02 01:36:00;;;;;;;6.62;4.20;;;;;;;14.01;100.00;98087.30;1636865;87;21077;-64
2022/10/02 01:38:26;;;;;;;7.85;4.78;;;;;;;14.01;100.00;98074.23;1633589;87;21120;-64
2022/10/02 01:40:53;;;;;;;9.28;4.78;;;;;;;14.01;100.00;98074.23;1633340;87;21017;-64
2022/10/02 01:43:27;;;;;;;6.95;5.00;;;;;;;14.02;100.00;98075.42;1633505;86;21069;-64
2022/10/02 01:46:25;;;;;;;6.17;4.83;;;;;;;14.02;100.00;98080.66;1633441;87;21052;-64
2022/10/02 01:48:58;;;;;;;5.60;4.40;;;;;;;14.02;100.00;98060.22;1633340;88;20969;-64
2022/10/02 01:51:50;;;;;;;7.10;4.65;;;;;;;14.03;100.00;98056.66;1639432;85;21128;-64
2022/10/02 01:54:55;;;;;;;7.17;4.90;;;;;;;14.00;100.00;98059.02;1633464;88;21056;-64
2022/10/02 01:58:15;;;;;;;7.17;4.87;;;;;;;13.92;100.00;98053.58;1640879;86;21014;-64
2022/10/02 02:01:08;;;;;;;6.47;3.90;;;;;;;13.92;100.00;98053.58;1664604;84;21014;-64
2022/10/02 02:04:02;;;;;;;7.75;4.80;;;;;;;13.86;100.00;98047.51;1654959;86;20978;-63
2022/10/02 02:07:03;;;;;;;8.73;5.20;;;;;;;13.81;100.00;98045.72;1661223;86;21181;-64
2022/10/02 02:09:52;;;;;;;6.95;6.05;;;;;;;13.77;100.00;98037.78;1664191;84;21073;-63
2022/10/02 02:12:23;;;;;;;9.48;5.40;;;;;;;13.69;100.00;98037.05;1664732;86;21034;-64
2022/10/02 02:14:54;;;;;;;5.95;4.50;;;;;;;13.64;100.00;98038.34;1637638;86;21053;-64
2022/10/02 02:17:30;;;;;;;7.72;5.22;;;;;;;13.62;100.00;98035.02;1633191;87;21486;-63
2022/10/02 02:20:01;;;;;;;6.50;4.80;;;;;;;13.60;100.00;98040.36;1642614;87;21266;-64
2022/10/02 02:22:31;;;;;;;6.58;5.37;;;;;;;13.60;100.00;98039.52;1633119;88;21029;-64
2022/10/02 02:25:10;;;;;;;5.60;4.65;;;;;;;13.60;100.00;98035.60;1633187;86;21057;-64
2022/10/02 02:27:40;;;;;;;7.20;4.00;;;;;;;13.58;100.00;98038.84;1634865;86;21182;-64
2022/10/02 02:30:10;;;;;;;9.50;4.05;;;;;;;13.57;100.00;98039.31;1633316;88;21072;-64
2022/10/02 02:32:43;;;;;;;7.92;5.53;;;;;;;13.60;100.00;98030.38;1633354;88;21801;-64
2022/10/02 02:35:18;;;;;;;5.28;4.78;;;;;;;13.62;100.00;98020.17;1612465;87;21002;-64
2022/10/02 02:37:45;;;;;;;6.33;4.60;;;;;;;13.67;100.00;98017.22;1592785;89;21036;-64
2022/10/02 02:40:16;;;;;;;6.78;4.45;;;;;;;13.71;100.00;98026.48;1593857;89;21012;-64
2022/10/02 02:42:51;;;;;;;9.70;4.62;;;;;;;13.72;100.00;98015.92;1591842;89;21075;-64
2022/10/02 02:45:21;;;;;;;6.03;4.67;;;;;;;13.72;100.00;98006.77;1619501;87;21267;-64
2022/10/02 02:47:53;;;;;;;6.10;4.65;;;;;;;13.76;100.00;98009.98;1621714;88;21026;-64
2022/10/02 02:50:34;;;;;;;5.80;4.37;;;;;;;13.76;100.00;98000.37;1621768;88;21046;-64
2022/10/02 02:53:14;;;;;;;6.03;4.35;;;;;;;13.79;100.00;97999.27;1621819;88;21033;-63
2022/10/02 02:55:50;;;;;;;8.98;5.28;;;;;;;13.74;100.00;97986.59;1593713;89;20988;-63
2022/10/02 02:58:38;;;;;;;10.00;5.10;;;;;;;13.73;100.00;97980.17;1621972;88;21321;-63
2022/10/02 03:01:05;;;;;;;6.17;4.62;;;;;;;13.72;100.00;97971.50;1594819;89;21016;-64
2022/10/02 03:03:32;;;;;;;6.10;4.15;;;;;;;13.68;100.00;97962.23;1621845;88;21014;-64
2022/10/02 03:06:18;;;;;;;7.60;4.90;;;;;;;13.65;100.00;97962.94;1594827;89;21104;-63
2022/10/02 03:08:46;;;;;;;7.30;4.75;;;;;;;13.65;100.00;97962.94;1621925;88;21426;-63
2022/10/02 03:11:28;;;;;;;10.23;4.78;;;;;;;13.63;100.00;97961.75;1594829;90;21196;-63
2022/10/02 03:14:23;;;;;;;8.60;4.83;;;;;;;13.63;100.00;97961.75;1606855;88;20974;-63
2022/10/02 03:17:12;;;;;;;12.70;5.20;;;;;;;13.65;100.00;97955.10;1594863;89;21085;-63
2022/10/02 03:20:05;;;;;;;6.00;4.83;;;;;;;13.66;100.00;97961.98;1600137;88;20977;-63
2022/10/02 03:23:07;;;;;;;8.45;5.72;;;;;;;13.65;100.00;97961.16;1632794;86;21499;-63
2022/10/02 03:25:55;;;;;;;6.30;5.70;;;;;;;13.66;100.00;97965.91;1621746;88;21191;-64
2022/10/02 03:28:33;;;;;;;5.97;5.25;;;;;;;13.65;100.00;97958.55;1577577;90;20999;-64
2022/10/02 03:30:59;;;;;;;5.20;4.70;;;;;;;13.68;100.00;97954.87;1554947;92;21042;-64
2022/10/02 03:33:26;;;;;;;10.78;5.40;;;;;;;13.68;100.00;97952.26;1614393;88;21014;-64
2022/10/02 03:35:53;;;;;;;8.40;4.95;;;;;;;13.67;100.00;97955.81;1613441;88;21542;-64
2022/10/02 03:38:19;;;;;;;6.33;5.03;;;;;;;13.65;100.00;97951.19;1613429;87;21257;-64
2022/10/02 03:40:46;;;;;;;11.38;5.05;;;;;;;13.63;100.00;97959.14;1559656;90;21039;-64
2022/10/02 03:43:21;;;;;;;6.15;4.75;;;;;;;13.62;100.00;97952.72;1617749;87;21475;-63
2022/10/02 03:45:47;;;;;;;8.73;5.72;;;;;;;13.61;100.00;97952.36;1617699;88;21092;-63
2022/10/02 03:48:14;;;;;;;5.78;5.28;;;;;;;13.59;100.00;97947.26;1615973;88;20998;-63
2022/10/02 03:50:41;;;;;;;5.22;4.53;;;;;;;13.57;100.00;97933.98;1606176;87;21145;-63
2022/10/02 03:53:17;;;;;;;7.62;4.70;;;;;;;13.54;100.00;97941.59;1606691;88;21042;-63
2022/10/02 03:55:52;;;;;;;11.25;4.47;;;;;;;13.54;100.00;97938.14;1607170;88;21082;-64
2022/10/02 03:58:18;;;;;;;8.73;5.28;;;;;;;13.55;100.00;97939.80;1601984;88;21110;-64
2022/10/02 04:01:20;;;;;;;5.65;4.90;;;;;;;13.56;100.00;97934.46;1606681;89;21542;-64
2022/10/02 04:03:51;;;;;;;6.65;5.12;;;;;;;13.56;100.00;97934.46;1606581;89;21268;-64
2022/10/02 04:06:47;;;;;;;7.35;4.37;;;;;;;13.56;100.00;97927.94;1606539;89;21096;-64
2022/10/02 04:09:40;;;;;;;6.53;4.87;;;;;;;13.59;100.00;97927.66;1606565;89;21522;-66
2022/10/02 04:12:21;;;;;;;6.75;5.10;;;;;;;13.59;100.00;97922.44;1599339;89;21359;-64
2022/10/02 04:14:56;;;;;;;9.28;5.62;;;;;;;13.63;100.00;97917.81;1604915;89;21042;-64
2022/10/02 04:17:45;;;;;;;8.33;5.55;;;;;;;13.69;100.00;97924.70;1606674;88;21931;-64
2022/10/02 04:20:17;;;;;;;8.20;4.70;;;;;;;13.73;100.00;97920.91;1606771;88;21058;-63
2022/10/02 04:22:53;;;;;;;6.95;5.17;;;;;;;13.78;100.00;97920.08;1606507;89;20994;-63
2022/10/02 04:25:22;;;;;;;7.03;5.50;;;;;;;13.82;100.00;97914.58;1606676;89;21094;-64
2022/10/02 04:28:07;;;;;;;7.92;5.10;;;;;;;13.86;100.00;97907.69;1623874;85;21052;-64
2022/10/02 04:30:35;;;;;;;12.40;6.10;;;;;;;13.89;100.00;97909.23;1633477;86;21167;-64
2022/10/02 04:33:16;;;;;;;7.55;5.22;;;;;;;13.94;100.00;97911.01;1633835;86;21031;-64
2022/10/02 04:36:00;;;;;;;7.78;5.22;;;;;;;14.01;100.00;97912.99;1634218;87;21009;-64
2022/10/02 04:38:57;;;;;;;9.15;5.78;;;;;;;14.01;100.00;97912.99;1598581;87;21053;-65
2022/10/02 04:41:45;;;;;;;9.63;5.90;;;;;;;14.03;100.00;97896.71;1659558;86;21007;-63
2022/10/02 04:44:35;;;;;;;6.17;4.78;;;;;;;14.05;100.00;97888.75;1641736;86;21184;-64
2022/10/02 04:47:13;;;;;;;6.80;5.22;;;;;;;14.07;100.00;97886.84;1634137;86;20973;-64
2022/10/02 04:50:13;;;;;;;6.25;5.30;;;;;;;14.07;100.00;97886.84;1633045;87;21009;-64
2022/10/02 04:52:53;;;;;;;7.37;5.65;;;;;;;14.07;100.00;97883.75;1632720;87;21078;-63
2022/10/02 04:55:46;;;;;;;7.17;5.35;;;;;;;14.06;100.00;97896.47;1633844;85;21028;-63
2022/10/02 04:58:39;;;;;;;9.88;6.45;;;;;;;14.04;100.00;97908.00;1668820;86;21285;-63
2022/10/02 05:01:23;;;;;;;12.20;7.35;;;;;;;14.03;100.00;97912.87;1668899;86;20978;-63
2022/10/02 05:04:11;;;;;;;11.40;7.45;;;;;;;14.01;100.00;97920.83;1669339;84;21168;-63
2022/10/02 05:07:13;;;;;;;8.73;6.78;;;;;;;14.01;100.00;97914.77;1669331;86;21036;-63
2022/10/02 05:10:08;;;;;;;8.98;7.70;;;;;;;14.03;100.00;97918.93;1614576;87;21084;-63
2022/10/02 05:12:50;;;;;;;9.98;7.45;;;;;;;14.10;100.00;97910.96;1633251;86;21165;-63
2022/10/02 05:15:25;;;;;;;9.68;7.05;;;;;;;14.10;100.00;97910.96;1633306;86;21432;-63
2022/10/02 05:18:31;;;;;;;8.08;6.08;;;;;;;14.11;100.00;97904.78;1629702;86;21417;-63
2022/10/02 05:21:41;;;;;;;11.12;5.33;;;;;;;14.13;100.00;97913.34;1633799;86;21552;-63
2022/10/02 05:24:22;;;;;;;8.40;5.80;;;;;;;14.11;100.00;97911.31;1633499;86;21050;-63
2022/10/02 05:27:28;;;;;;;6.12;5.53;;;;;;;14.11;100.00;97911.31;1631914;86;21251;-64
2022/10/02 05:30:11;;;;;;;4.97;4.40;;;;;;;14.10;100.00;97915.36;1628090;88;21014;-63
2022/10/02 05:33:03;;;;;;;4.90;4.37;;;;;;;14.13;100.00;97919.04;1664589;85;21473;-65
2022/10/02 05:35:46;;;;;;;3.95;3.55;;;;;;;14.16;100.00;97913.57;1643379;86;21008;-65
2022/10/02 05:39:10;;;;;;;4.10;3.58;;;;;;;14.22;100.00;97913.53;1621637;88;21014;-64
2022/10/02 05:42:09;;;;;;;3.80;3.50;;;;;;;14.22;100.00;97913.53;1633195;86;21327;-63
2022/10/02 05:44:47;;;;;;;2.95;2.40;;;;;;;14.24;100.00;97918.99;1621559;88;20994;-62
2022/10/02 05:47:38;;;;;;;2.95;2.67;;;;;;;14.32;100.00;97907.92;1615042;86;20995;-65
2022/10/02 05:50:30;;;;;;;3.10;2.80;;;;;;;14.36;100.00;97909.34;1621739;88;20988;-63
2022/10/02 05:53:07;;;;;;;2.72;2.47;;;;;;;14.40;100.00;97908.97;1594105;89;20982;-63
2022/10/02 05:55:51;;;;;;;2.40;2.00;;;;;;;14.40;100.00;97908.97;1633796;87;21174;-64
2022/10/02 05:58:26;;;;;;;2.72;1.87;;;;;;;14.46;100.00;97895.40;1633453;86;21096;-63
2022/10/02 06:01:23;;;;;;;3.10;1.90;;;;;;;14.46;100.00;97895.40;1622225;87;21453;-64
2022/10/02 06:04:01;;;;;;;2.75;1.82;;;;;;;14.50;100.00;97901.22;1557865;90;21039;-65
2022/10/02 06:06:50;;;;;;;3.42;1.40;;;;;;;14.54;100.00;97893.47;1639899;86;21604;-64
2022/10/02 06:09:27;;;;;;;2.15;1.40;;;;;;;14.56;100.00;97889.42;1636032;86;21151;-64
2022/10/02 06:12:06;;;;;;;3.25;1.35;;;;;;;14.62;100.00;97891.52;1621659;88;20958;-64
2022/10/02 06:14:44;;;;;;;1.55;1.45;;;;;;;14.65;100.00;97876.39;1633344;86;20978;-64
2022/10/02 06:17:36;;;;;;;3.15;1.20;;;;;;;14.72;100.00;97881.48;1633873;86;21053;-64
2022/10/02 06:20:36;;;;;;;1.30;1.20;;;;;;;14.78;100.00;97882.76;1622135;88;21414;-64
2022/10/02 06:23:14;;;;;;;2.60;1.12;;;;;;;14.82;100.00;97878.42;1633417;86;21121;-64
2022/10/02 06:25:48;;;;;;;1.40;1.27;;;;;;;14.83;100.00;97884.48;1621763;88;21438;-64
2022/10/02 06:28:53;;;;;;;1.32;1.07;;;;;;;14.84;100.00;97891.39;1632785;86;20978;-64
2022/10/02 06:31:57;;;;;;;1.05;0.95;;;;;;;14.91;100.00;97895.64;1634711;86;20997;-64
2022/10/02 06:34:24;;;;;;;2.42;1.35;;;;;;;14.98;100.00;97896.31;1633633;86;20966;-64
2022/10/02 06:37:33;;;;;;;1.52;1.10;;;;;;;15.02;100.00;97896.38;1621757;88;21146;-64
2022/10/02 06:40:35;;;;;;;0.90;0.90;;;;;;;15.03;100.00;97892.80;1633407;86;21069;-63
2022/10/02 06:43:41;;;;;;;1.17;0.90;;;;;;;15.11;100.00;97889.07;1633848;86;20961;-63
2022/10/02 06:46:26;;;;;;;1.10;0.98;;;;;;;15.14;100.00;97891.91;1621784;88;21100;-64
2022/10/02 06:49:08;;;;;;;2.12;1.40;;;;;;;15.21;100.00;97906.13;1621386;88;20969;-64
2022/10/02 06:51:52;;;;;;;3.85;2.30;;;;;;;15.22;100.00;97906.95;1584817;88;21171;-64
2022/10/02 06:54:40;;;;;;;3.25;1.72;;;;;;;15.31;100.00;97906.19;1594641;89;21029;-64
2022/10/02 06:57:27;;;;;;;1.98;1.60;;;;;;;15.35;100.00;97911.52;1621743;88;20962;-64
2022/10/02 07:00:09;;;;;;;3.27;1.70;;;;;;;15.37;100.00;97910.43;1591845;90;21000;-65
2022/10/02 07:03:08;;;;;;;1.90;1.10;;;;;;;15.41;100.00;97920.14;1621755;88;21075;-64
2022/10/02 07:06:00;;;;;;;1.98;1.20;;;;;;;15.45;100.00;97922.85;1594768;89;21048;-64
2022/10/02 07:08:50;;;;;;;1.52;1.20;;;;;;;15.50;100.00;97927.23;1621546;88;21451;-65
2022/10/02 07:11:41;;;;;;;1.55;1.10;;;;;;;15.55;100.00;97928.15;1594725;89;21088;-64
2022/10/02 07:14:36;;;;;;;1.20;1.10;;;;;;;15.62;100.00;97934.53;1623778;87;21525;-64
2022/10/02 07:17:56;;;;;;;1.67;1.30;;;;;;;15.68;100.00;97924.36;1620418;88;20969;-64
2022/10/02 07:20:37;;;;;;;1.32;1.22;;;;;;;15.75;100.00;97932.05;1621809;88;21161;-63
2022/10/02 07:23:19;;;;;;;1.82;1.12;;;;;;;15.79;100.00;97928.66;1623002;88;20962;-64
2022/10/02 07:26:12;;;;;;;1.10;1.10;;;;;;;15.77;100.00;97930.61;1633191;87;21025;-64
2022/10/02 07:28:54;;;;;;;;;;;;;;;15.77;100.00;97934.06;1636731;86;21068;-64
2022/10/02 07:31:48;;;;;;;2.42;1.60;;;;;;;15.84;100.00;97922.53;1642476;87;20185;-64
2022/10/02 07:34:45;;;;;;;3.72;1.30;;;;;;;15.91;100.00;97924.16;1662952;85;22231;-64
2022/10/02 07:37:24;;;;;;;1.55;1.45;;;;;;;15.99;100.00;97917.73;1659501;86;20969;-64
2022/10/02 07:40:02;;;;;;;1.80;1.70;;;;;;;15.99;100.00;97926.43;1659445;85;21058;-65
2022/10/02 07:43:07;;;;;;;1.95;1.20;;;;;;;15.94;100.00;97929.96;1659728;86;20997;-64
2022/10/02 07:45:40;;;;;;;0.80;0.80;;;;;;;15.84;100.00;97929.92;1659635;86;21018;-64
2022/10/02 07:48:19;;;;;;;3.02;0.80;;;;;;;15.67;100.00;97937.11;1659709;85;21154;-64
2022/10/02 07:51:52;;;;;;;1.25;1.00;;;;;;;15.54;100.00;97937.80;1659574;85;21022;-64
2022/10/02 07:53:48;;;;;;;4.45;1.20;;;;;;;15.40;100.00;97940.75;1652353;86;21025;-63
2022/10/02 07:56:18;;;;;;;1.27;1.15;;;;;;;15.27;100.00;97958.00;1659799;86;21406;-64
2022/10/02 07:58:50;;;;;;;0.78;0.70;;;;;;;15.17;100.00;97949.27;1645523;86;21026;-65
2022/10/02 08:01:32;;;;;;;4.45;1.32;;;;;;;15.09;100.00;97945.14;1645560;86;21497;-64
2022/10/02 08:04:28;;;;;;;1.00;0.90;;;;;;;15.00;100.00;97948.04;1645476;87;21109;-65
2022/10/02 08:07:02;;;;;;;1.17;0.70;;;;;;;14.91;100.00;97946.20;1656311;86;21132;-65
2022/10/02 08:09:38;;;;;;;1.22;0.90;;;;;;;14.87;100.00;97959.67;1655390;86;21050;-64
2022/10/02 08:12:19;;;;;;;0.98;0.72;;;;;;;14.81;100.00;97951.36;1655381;85;21462;-64
2022/10/02 08:14:46;;;;;;;0.80;0.80;;;;;;;14.77;100.00;97962.23;1655130;85;21434;-64
2022/10/02 08:17:46;;;;;;;1.60;0.72;;;;;;;14.69;100.00;97955.00;1655490;85;21014;-65
2022/10/02 08:20:29;;;;;;;0.93;0.60;;;;;;;14.64;100.00;97955.02;1630525;87;20984;-64
2022/10/02 08:23:01;;;;;;;1.05;0.70;;;;;;;14.61;100.00;97968.34;1630197;86;20982;-64
2022/10/02 08:25:33;;;;;;;1.30;0.90;;;;;;;14.59;100.00;97955.89;1630381;86;21109;-65
2022/10/02 08:28:22;;;;;;;3.02;0.80;;;;;;;14.53;100.00;97960.31;1629219;86;21811;-64
2022/10/02 08:30:50;;;;;;;0.62;0.57;;;;;;;14.46;100.00;97952.12;1637883;87;21021;-65
2022/10/02 08:33:21;;;;;;;0.90;0.50;;;;;;;14.40;100.00;97955.19;1633656;87;20985;-65
2022/10/02 08:36:00;;;;;;;2.22;1.90;;;;;;;14.39;100.00;97953.05;1633833;86;21060;-64
2022/10/02 08:38:45;;;;;;;1.80;0.72;;;;;;;14.38;100.00;97945.36;1634318;86;21606;-64
2022/10/02 08:41:32;;;;;;;0.82;0.50;;;;;;;14.32;100.00;97950.59;1634168;85;22098;-63
2022/10/02 08:44:34;;;;;;;0.42;0.40;;;;;;;14.26;100.00;97965.47;1633598;87;21025;-63
2022/10/02 08:47:27;;;;;;;0.90;0.65;;;;;;;14.18;100.00;97953.50;1633799;87;21065;-63
2022/10/02 08:50:48;;;;;;;1.50;0.50;;;;;;;14.16;100.00;97955.41;1631667;87;21022;-63
2022/10/02 08:53:58;;;;;;;0.80;0.70;;;;;;;14.26;100.00;97955.48;1633736;86;21014;-63
2022/10/02 08:56:54;;;;;;;0.40;0.40;;;;;;;14.43;100.00;97957.12;1634787;86;21177;-64
2022/10/02 09:00:05;;;;;;;0.33;0.30;;;;;;;14.55;100.00;97955.31;1631331;87;21194;-64
2022/10/02 09:03:03;;;;;;;0.47;0.30;;;;;;;14.51;100.00;97959.13;1634083;87;21006;-64
2022/10/02 09:05:59;;;;;;;0.60;0.40;;;;;;;14.41;100.00;97960.81;1632018;87;37901;-64
2022/10/02 09:09:22;;;;;;;1.15;1.05;;;;;;;14.46;100.00;97969.12;1638306;86;21505;-64
2022/10/02 09:12:13;;;;;;;0.50;0.50;;;;;;;14.54;100.00;97978.98;1631337;88;21159;-65
2022/10/02 09:14:54;;;;;;;0.85;0.70;;;;;;;14.63;98.57;97979.05;1630646;86;21045;-64
2022/10/02 09:18:04;;;;;;;2.77;0.57;;;;;;;14.68;96.40;97976.89;1633987;86;21126;-64
2022/10/02 09:20:58;;;;;;;1.02;0.80;;;;;;;14.70;92.65;97962.38;1633711;86;21065;-65
2022/10/02 09:23:39;;;;;;;2.50;0.93;;;;;;;14.68;90.66;97987.36;1633420;86;21001;-64
2022/10/02 09:26:48;;;;;;;3.75;2.15;;;;;;;14.65;90.42;97998.55;1634031;85;21119;-65
2022/10/02 09:29:57;;;;;;;3.10;1.25;;;;;;;14.64;89.69;97987.25;1633578;86;21413;-65
2022/10/02 09:33:03;;;;;;;1.40;1.30;;;;;;;14.67;88.06;98002.70;1620237;88;21007;-65
2022/10/02 09:36:00;;;;;;;2.02;1.60;;;;;;;14.77;85.50;97991.86;1664049;86;21021;-64
2022/10/02 09:39:02;;;;;;;3.25;1.27;;;;;;;14.87;84.75;97995.84;1664451;85;21461;-64
2022/10/02 09:42:20;;;;;;;2.25;1.25;;;;;;;14.95;83.75;97982.13;1650128;85;21122;-65
2022/10/02 09:45:17;;;;;;;2.45;1.92;;;;;;;14.90;83.98;98013.09;1633387;88;21045;-65
2022/10/02 09:48:20;;;;;;;4.92;1.50;;;;;;;14.87;84.92;97994.53;1622150;87;21006;-65
2022/10/02 09:51:16;;;;;;;5.15;1.47;;;;;;;14.80;85.57;98003.35;1594753;90;21025;-65
2022/10/02 09:54:20;;;;;;;1.82;1.55;;;;;;;14.67;85.88;97975.70;1621928;88;20966;-65
2022/10/02 09:57:14;;;;;;;1.70;1.60;;;;;;;14.54;84.12;97999.43;1594950;90;21931;-65
2022/10/02 10:00:10;;;;;;;4.12;1.40;;;;;;;14.47;83.17;97993.85;1621781;88;21498;-65
2022/10/02 10:03:15;;;;;;;1.77;1.35;;;;;;;14.48;83.89;98001.22;1594884;89;21048;-64
2022/10/02 10:06:33;;;;;;;2.85;1.60;;;;;;;14.52;83.72;98017.03;1621710;87;21065;-65
2022/10/02 10:09:38;;;;;;;2.90;1.62;;;;;;;14.54;83.77;98018.22;1594739;89;21113;-65
2022/10/02 10:12:23;;;;;;;5.40;2.37;;;;;;;14.47;82.42;98012.16;1621505;87;21593;-65
2022/10/02 10:15:01;;;;;;;4.45;1.60;;;;;;;14.38;81.60;98027.27;1594543;88;21036;-63
2022/10/02 10:18:10;;;;;;;2.10;1.00;;;;;;;14.30;82.81;98006.59;1621708;88;21013;-64
2022/10/02 10:21:07;;;;;;;1.70;1.20;;;;;;;14.28;82.32;98013.72;1594700;88;21076;-65
2022/10/02 10:23:39;;;;;;;7.17;1.20;;;;;;;14.32;81.74;98017.77;1589973;88;21442;-65
2022/10/02 10:26:44;;;;;;;5.25;1.42;;;;;;;14.27;81.98;98009.45;1635248;86;21240;-65
2022/10/02 10:29:49;;;;;;;1.25;1.15;;;;;;;14.20;83.24;98014.32;1633965;86;21018;-65
2022/10/02 10:33:00;;;;;;;2.02;1.07;;;;;;;14.16;82.14;98009.48;1615686;88;21071;-65
2022/10/02 10:36:03;;;;;;;3.40;1.00;;;;;;;14.11;81.00;98009.84;1633216;86;20990;-65
2022/10/02 10:38:52;;;;;;;1.43;1.23;;;;;;;14.10;81.99;98002.47;1657802;86;20983;-64
2022/10/02 10:41:40;;;;;;;1.65;1.17;;;;;;;14.20;80.69;98005.17;1657732;86;21104;-64
2022/10/02 10:44:31;;;;;;;1.30;1.20;;;;;;;14.27;79.12;98029.89;1635861;86;21445;-64
2022/10/02 10:47:35;;;;;;;1.47;1.27;;;;;;;14.27;79.12;98029.89;1633256;86;21059;-64
2022/10/02 10:50:31;;;;;;;1.15;0.82;;;;;;;14.19;78.78;98010.05;1633627;88;21025;-65
2022/10/02 10:53:36;;;;;;;1.82;1.07;;;;;;;14.17;77.69;98003.30;1627313;87;21113;-65
2022/10/02 10:56:34;;;;;;;1.92;1.30;;;;;;;14.23;77.98;98007.55;1647600;87;21234;-64
2022/10/02 10:59:27;;;;;;;4.75;1.12;;;;;;;14.37;77.01;97991.61;1646425;86;20998;-64
2022/10/02 11:02:34;;;;;;;3.35;1.20;;;;;;;14.50;75.18;97998.48;1638734;87;20960;-64
2022/10/02 11:06:01;;;;;;;1.92;1.10;;;;;;;14.62;75.27;97979.16;1621755;88;21065;-65
2022/10/02 11:09:04;;;;;;;2.85;1.10;;;;;;;14.73;75.19;97993.53;1594854;89;21001;-65
2022/10/02 11:11:42;;;;;;;2.77;1.20;;;;;;;14.87;74.65;98014.16;1621832;87;21252;-64
2022/10/02 11:14:41;;;;;;;4.95;1.98;;;;;;;14.91;74.22;97988.09;1571794;88;21043;-64
2022/10/02 11:17:35;;;;;;;3.67;1.35;;;;;;;14.91;75.87;97992.02;1623671;88;21064;-64
2022/10/02 11:20:38;;;;;;;2.47;1.30;;;;;;;14.89;74.38;98011.42;1633031;87;21061;-65
2022/10/02 11:23:44;;;;;;;1.40;1.30;;;;;;;14.75;74.06;98006.84;1621527;87;20958;-65
2022/10/02 11:26:31;;;;;;;3.37;1.70;;;;;;;14.55;74.86;98011.56;1633344;87;21900;-65
2022/10/02 11:29:32;;;;;;;1.82;1.30;;;;;;;14.42;75.39;98019.54;1622974;87;21065;-65
2022/10/02 11:32:27;;;;;;;3.55;1.45;;;;;;;14.43;75.58;98000.75;1633685;86;20976;-65
2022/10/02 11:35:18;;;;;;;2.17;1.65;;;;;;;14.49;76.26;97996.34;1633544;87;21030;-65
2022/10/02 11:38:15;;;;;;;3.67;1.52;;;;;;;14.60;76.68;97995.46;1633493;86;20965;-64
2022/10/02 11:41:01;;;;;;;3.25;1.40;;;;;;;14.65;74.78;98003.30;1644849;85;21341;-64
2022/10/02 11:44:00;;;;;;;2.67;1.20;;;;;;;14.72;75.29;98016.25;1632069;86;20962;-65
2022/10/02 11:46:47;;;;;;;1.45;1.20;;;;;;;14.76;74.80;97999.83;1633657;86;20969;-65
2022/10/02 11:49:46;;;;;;;2.30;1.40;;;;;;;14.83;73.99;98003.58;1633651;86;21006;-64
2022/10/02 11:52:45;;;;;;;2.98;1.17;;;;;;;14.89;74.23;98011.42;1634864;86;21096;-64
2022/10/02 11:55:50;;;;;;;3.58;1.40;;;;;;;15.00;73.50;98006.95;1633836;87;21497;-64
2022/10/02 11:58:40;;;;;;;2.08;1.30;;;;;;;14.96;72.01;98019.14;1633191;86;20986;-64
2022/10/02 12:01:30;;;;;;;12.33;2.27;;;;;;;14.83;72.79;98017.98;1634655;86;21553;-65
2022/10/02 12:04:18;;;;;;;2.45;1.30;;;;;;;14.76;72.81;98014.22;1633336;87;20978;-64
2022/10/02 12:07:12;;;;;;;2.75;1.85;;;;;;;14.76;73.34;98024.21;1633433;86;20977;-64
2022/10/02 12:09:53;;;;;;;2.22;1.50;;;;;;;14.73;73.48;98028.86;1633414;88;21307;-64
2022/10/02 12:12:41;;;;;;;1.95;1.70;;;;;;;14.64;74.32;98025.19;1642611;87;21004;-64
2022/10/02 12:15:51;;;;;;;2.45;1.77;;;;;;;14.58;73.96;98022.26;1633105;86;20990;-64
2022/10/02 12:18:50;;;;;;;3.20;1.70;;;;;;;14.54;74.14;98038.67;1633015;87;21057;-64
2022/10/02 12:28:29;;;;;;;2.62;1.57;;;;;;;14.41;75.89;98040.59;1662333;86;20971;-64
2022/10/02 12:31:09;;;;;;;4.42;1.90;;;;;;;14.36;75.37;98044.03;1662123;86;20978;-64
2022/10/02 12:34:09;;;;;;;5.20;2.08;;;;;;;14.36;75.92;98038.80;1662297;86;21027;-64
2022/10/02 12:36:57;;;;;;;2.22;2.00;;;;;;;14.40;76.11;98038.45;1661325;86;21010;-64
2022/10/02 12:39:47;;;;;;;1.70;1.60;;;;;;;14.47;75.55;98036.19;1638954;86;21191;-64
2022/10/02 12:42:40;;;;;;;3.90;2.42;;;;;;;14.50;74.16;98029.88;1660756;86;21211;-64
2022/10/02 12:45:32;;;;;;;3.83;2.08;;;;;;;14.52;74.08;98031.90;1647227;86;20986;-64
2022/10/02 12:48:20;;;;;;;1.90;1.77;;;;;;;14.55;74.64;98028.56;1661908;86;21002;-66
2022/10/02 12:50:55;;;;;;;3.25;2.10;;;;;;;14.56;72.75;98032.84;1662027;86;21038;-64
2022/10/02 12:53:56;;;;;;;5.62;1.87;;;;;;;14.55;73.66;98043.43;1662096;86;21249;-64
2022/10/02 12:57:05;;;;;;;2.17;1.90;;;;;;;14.57;72.88;98037.60;1661596;86;21042;-64
2022/10/02 12:59:57;;;;;;;2.45;1.85;;;;;;;14.57;71.87;98051.98;1661966;86;21041;-64
2022/10/02 13:03:00;;;;;;;2.40;1.90;;;;;;;14.56;72.36;98038.08;1659082;86;21536;-64
2022/10/02 13:05:53;;;;;;;2.40;1.90;;;;;;;14.56;73.26;98049.84;1645477;86;20970;-64
2022/10/02 13:08:41;;;;;;;;;;;;;;;14.58;74.11;98049.73;1664540;86;21842;-64